sensor_id;sensor_type;location;lat;lon;timestamp;P1;durP1;ratioP1;P2;durP2;ratioP2
74626;SDS011;63132;52.268;5.192;2023-01-15T00:00:58;18.93;;;2.87;;
74626;SDS011;63132;52.268;5.192;2023-01-15T00:03:25;20.65;;;3.13;;
74626;SDS011;63132;52.268;5.192;2023-01-15T00:05:51;17.73;;;2.80;;
74626;SDS011;63132;52.268;5.192;2023-01-15T00:08:16;12.98;;;2.67;;
74626;SDS011;63132;52.268;5.192;2023-01-15T00:10:42;14.80;;;2.70;;
74626;SDS011;63132;52.268;5.192;2023-01-15T00:13:07;21.90;;;3.40;;
74626;SDS011;63132;52.268;5.192;2023-01-15T00:15:33;15.93;;;3.10;;
74626;SDS011;63132;52.268;5.192;2023-01-15T00:17:58;19.02;;;3.38;;
74626;SDS011;63132;52.268;5.192;2023-01-15T00:20:24;17.10;;;2.78;;
74626;SDS011;63132;52.268;5.192;2023-01-15T00:22:49;15.13;;;2.88;;
74626;SDS011;63132;52.268;5.192;2023-01-15T00:25:15;13.87;;;2.50;;
74626;SDS011;63132;52.268;5.192;2023-01-15T00:27:58;17.48;;;2.88;;
74626;SDS011;63132;52.268;5.192;2023-01-15T00:30:24;16.20;;;2.80;;
74626;SDS011;63132;52.268;5.192;2023-01-15T00:32:49;15.77;;;2.70;;
74626;SDS011;63132;52.268;5.192;2023-01-15T00:35:16;17.63;;;2.87;;
74626;SDS011;63132;52.268;5.192;2023-01-15T00:37:44;20.48;;;3.47;;
74626;SDS011;63132;52.268;5.192;2023-01-15T00:40:09;16.63;;;3.08;;
74626;SDS011;63132;52.268;5.192;2023-01-15T00:42:36;13.63;;;2.33;;
74626;SDS011;63132;52.268;5.192;2023-01-15T00:45:02;17.70;;;3.60;;
74626;SDS011;63132;52.268;5.192;2023-01-15T00:47:34;17.58;;;2.90;;
74626;SDS011;63132;52.268;5.192;2023-01-15T00:50:00;17.42;;;3.30;;
74626;SDS011;63132;52.268;5.192;2023-01-15T00:52:26;18.85;;;3.20;;
74626;SDS011;63132;52.268;5.192;2023-01-15T00:54:52;15.52;;;2.75;;
74626;SDS011;63132;52.268;5.192;2023-01-15T00:57:18;17.08;;;4.03;;
74626;SDS011;63132;52.268;5.192;2023-01-15T00:59:43;16.70;;;2.83;;
74626;SDS011;63132;52.268;5.192;2023-01-15T01:02:09;18.55;;;3.20;;
74626;SDS011;63132;52.268;5.192;2023-01-15T01:04:34;19.93;;;3.27;;
74626;SDS011;63132;52.268;5.192;2023-01-15T01:07:00;18.20;;;3.47;;
74626;SDS011;63132;52.268;5.192;2023-01-15T01:09:25;16.17;;;2.80;;
74626;SDS011;63132;52.268;5.192;2023-01-15T01:11:50;19.35;;;3.10;;
74626;SDS011;63132;52.268;5.192;2023-01-15T01:14:16;20.15;;;2.88;;
74626;SDS011;63132;52.268;5.192;2023-01-15T01:16:41;21.97;;;3.23;;
74626;SDS011;63132;52.268;5.192;2023-01-15T01:19:12;17.27;;;3.17;;
74626;SDS011;63132;52.268;5.192;2023-01-15T01:21:48;19.50;;;3.47;;
74626;SDS011;63132;52.268;5.192;2023-01-15T01:24:20;22.13;;;3.03;;
74626;SDS011;63132;52.268;5.192;2023-01-15T01:26:47;19.30;;;2.67;;
74626;SDS011;63132;52.268;5.192;2023-01-15T01:29:18;14.23;;;2.30;;
74626;SDS011;63132;52.268;5.192;2023-01-15T01:31:45;18.60;;;3.30;;
74626;SDS011;63132;52.268;5.192;2023-01-15T01:34:12;23.98;;;2.97;;
74626;SDS011;63132;52.268;5.192;2023-01-15T01:36:38;18.80;;;3.33;;
74626;SDS011;63132;52.268;5.192;2023-01-15T01:39:06;19.15;;;2.95;;
74626;SDS011;63132;52.268;5.192;2023-01-15T01:41:36;14.80;;;2.70;;
74626;SDS011;63132;52.268;5.192;2023-01-15T01:44:05;15.40;;;3.08;;
74626;SDS011;63132;52.268;5.192;2023-01-15T01:46:35;11.77;;;2.30;;
74626;SDS011;63132;52.268;5.192;2023-01-15T01:49:08;17.57;;;3.33;;
74626;SDS011;63132;52.268;5.192;2023-01-15T01:51:37;21.13;;;3.50;;
74626;SDS011;63132;52.268;5.192;2023-01-15T01:54:23;21.48;;;2.97;;
74626;SDS011;63132;52.268;5.192;2023-01-15T01:56:51;17.08;;;2.90;;
74626;SDS011;63132;52.268;5.192;2023-01-15T01:59:17;19.45;;;2.90;;
74626;SDS011;63132;52.268;5.192;2023-01-15T02:01:46;14.30;;;2.78;;
74626;SDS011;63132;52.268;5.192;2023-01-15T02:04:12;19.73;;;3.30;;
74626;SDS011;63132;52.268;5.192;2023-01-15T02:06:38;14.83;;;2.53;;
74626;SDS011;63132;52.268;5.192;2023-01-15T02:09:06;19.47;;;2.80;;
74626;SDS011;63132;52.268;5.192;2023-01-15T02:11:32;15.60;;;2.85;;
74626;SDS011;63132;52.268;5.192;2023-01-15T02:14:13;18.25;;;2.45;;
74626;SDS011;63132;52.268;5.192;2023-01-15T02:16:46;18.88;;;3.33;;
74626;SDS011;63132;52.268;5.192;2023-01-15T02:27:48;17.63;;;2.95;;
74626;SDS011;63132;52.268;5.192;2023-01-15T02:33:02;18.70;;;3.20;;
74626;SDS011;63132;52.268;5.192;2023-01-15T02:35:55;19.23;;;3.40;;
74626;SDS011;63132;52.268;5.192;2023-01-15T02:38:25;22.00;;;3.00;;
74626;SDS011;63132;52.268;5.192;2023-01-15T02:40:55;17.23;;;3.08;;
74626;SDS011;63132;52.268;5.192;2023-01-15T02:43:24;18.40;;;3.10;;
74626;SDS011;63132;52.268;5.192;2023-01-15T02:45:53;16.50;;;2.55;;
74626;SDS011;63132;52.268;5.192;2023-01-15T02:48:24;13.77;;;2.60;;
74626;SDS011;63132;52.268;5.192;2023-01-15T02:50:54;17.85;;;2.75;;
74626;SDS011;63132;52.268;5.192;2023-01-15T02:53:25;15.20;;;2.63;;
74626;SDS011;63132;52.268;5.192;2023-01-15T02:55:54;18.00;;;3.20;;
74626;SDS011;63132;52.268;5.192;2023-01-15T02:58:27;15.13;;;3.08;;
74626;SDS011;63132;52.268;5.192;2023-01-15T03:00:56;18.25;;;2.90;;
74626;SDS011;63132;52.268;5.192;2023-01-15T03:09:00;18.17;;;2.97;;
74626;SDS011;63132;52.268;5.192;2023-01-15T03:11:26;16.13;;;2.72;;
74626;SDS011;63132;52.268;5.192;2023-01-15T03:13:58;21.20;;;2.45;;
74626;SDS011;63132;52.268;5.192;2023-01-15T03:24:28;15.07;;;2.80;;
74626;SDS011;63132;52.268;5.192;2023-01-15T03:26:54;13.93;;;2.60;;
74626;SDS011;63132;52.268;5.192;2023-01-15T03:29:20;14.50;;;2.80;;
74626;SDS011;63132;52.268;5.192;2023-01-15T03:31:50;23.65;;;3.33;;
74626;SDS011;63132;52.268;5.192;2023-01-15T03:34:16;18.38;;;2.95;;
74626;SDS011;63132;52.268;5.192;2023-01-15T03:36:41;15.77;;;2.63;;
74626;SDS011;63132;52.268;5.192;2023-01-15T03:39:07;15.73;;;2.93;;
74626;SDS011;63132;52.268;5.192;2023-01-15T03:41:58;17.87;;;3.13;;
74626;SDS011;63132;52.268;5.192;2023-01-15T03:44:49;21.03;;;3.03;;
74626;SDS011;63132;52.268;5.192;2023-01-15T03:47:48;15.23;;;2.53;;
74626;SDS011;63132;52.268;5.192;2023-01-15T03:55:44;18.88;;;2.90;;
74626;SDS011;63132;52.268;5.192;2023-01-15T03:58:35;15.65;;;3.38;;
74626;SDS011;63132;52.268;5.192;2023-01-15T04:01:06;18.77;;;2.70;;
74626;SDS011;63132;52.268;5.192;2023-01-15T04:03:37;18.70;;;3.60;;
74626;SDS011;63132;52.268;5.192;2023-01-15T04:06:03;14.95;;;3.25;;
74626;SDS011;63132;52.268;5.192;2023-01-15T04:08:31;16.10;;;2.85;;
74626;SDS011;63132;52.268;5.192;2023-01-15T04:11:00;15.75;;;2.30;;
74626;SDS011;63132;52.268;5.192;2023-01-15T04:13:26;15.18;;;2.60;;
74626;SDS011;63132;52.268;5.192;2023-01-15T04:15:53;15.68;;;3.00;;
74626;SDS011;63132;52.268;5.192;2023-01-15T04:18:19;13.00;;;2.70;;
74626;SDS011;63132;52.268;5.192;2023-01-15T04:20:45;11.80;;;2.20;;
74626;SDS011;63132;52.268;5.192;2023-01-15T04:23:11;15.48;;;2.50;;
74626;SDS011;63132;52.268;5.192;2023-01-15T04:25:37;16.35;;;3.05;;
74626;SDS011;63132;52.268;5.192;2023-01-15T04:28:03;19.10;;;3.00;;
74626;SDS011;63132;52.268;5.192;2023-01-15T04:30:28;13.00;;;2.60;;
74626;SDS011;63132;52.268;5.192;2023-01-15T04:32:54;18.37;;;2.90;;
74626;SDS011;63132;52.268;5.192;2023-01-15T04:35:20;16.77;;;2.37;;
74626;SDS011;63132;52.268;5.192;2023-01-15T04:37:45;18.83;;;3.25;;
74626;SDS011;63132;52.268;5.192;2023-01-15T04:40:11;20.30;;;3.35;;
74626;SDS011;63132;52.268;5.192;2023-01-15T04:42:57;12.85;;;2.28;;
74626;SDS011;63132;52.268;5.192;2023-01-15T04:45:44;12.55;;;2.55;;
74626;SDS011;63132;52.268;5.192;2023-01-15T04:48:10;14.05;;;2.53;;
74626;SDS011;63132;52.268;5.192;2023-01-15T04:50:36;18.65;;;2.75;;
74626;SDS011;63132;52.268;5.192;2023-01-15T04:53:02;13.85;;;2.55;;
74626;SDS011;63132;52.268;5.192;2023-01-15T04:55:28;14.27;;;2.63;;
74626;SDS011;63132;52.268;5.192;2023-01-15T04:57:54;17.20;;;2.55;;
74626;SDS011;63132;52.268;5.192;2023-01-15T05:00:19;13.73;;;2.57;;
74626;SDS011;63132;52.268;5.192;2023-01-15T05:02:45;12.70;;;2.80;;
74626;SDS011;63132;52.268;5.192;2023-01-15T05:05:10;17.15;;;2.72;;
74626;SDS011;63132;52.268;5.192;2023-01-15T05:07:36;15.40;;;2.45;;
74626;SDS011;63132;52.268;5.192;2023-01-15T05:10:01;15.60;;;2.47;;
74626;SDS011;63132;52.268;5.192;2023-01-15T05:12:27;16.13;;;2.78;;
74626;SDS011;63132;52.268;5.192;2023-01-15T05:14:52;12.97;;;2.53;;
74626;SDS011;63132;52.268;5.192;2023-01-15T05:17:18;15.17;;;2.83;;
74626;SDS011;63132;52.268;5.192;2023-01-15T05:19:43;16.93;;;3.17;;
74626;SDS011;63132;52.268;5.192;2023-01-15T05:22:09;14.90;;;3.00;;
74626;SDS011;63132;52.268;5.192;2023-01-15T05:24:35;14.02;;;2.85;;
74626;SDS011;63132;52.268;5.192;2023-01-15T05:27:00;16.88;;;2.70;;
74626;SDS011;63132;52.268;5.192;2023-01-15T05:29:26;13.55;;;2.58;;
74626;SDS011;63132;52.268;5.192;2023-01-15T05:31:52;14.97;;;2.90;;
74626;SDS011;63132;52.268;5.192;2023-01-15T05:34:17;16.37;;;2.83;;
74626;SDS011;63132;52.268;5.192;2023-01-15T05:36:43;13.70;;;2.50;;
74626;SDS011;63132;52.268;5.192;2023-01-15T05:39:08;18.83;;;2.88;;
74626;SDS011;63132;52.268;5.192;2023-01-15T05:41:34;10.70;;;2.47;;
74626;SDS011;63132;52.268;5.192;2023-01-15T05:46:48;15.47;;;2.33;;
74626;SDS011;63132;52.268;5.192;2023-01-15T05:49:16;12.05;;;2.17;;
74626;SDS011;63132;52.268;5.192;2023-01-15T05:51:44;15.55;;;2.83;;
74626;SDS011;63132;52.268;5.192;2023-01-15T05:54:14;14.75;;;2.83;;
74626;SDS011;63132;52.268;5.192;2023-01-15T05:56:45;12.90;;;2.13;;
74626;SDS011;63132;52.268;5.192;2023-01-15T05:59:12;19.25;;;2.90;;
74626;SDS011;63132;52.268;5.192;2023-01-15T06:01:38;11.82;;;2.10;;
74626;SDS011;63132;52.268;5.192;2023-01-15T06:04:04;15.33;;;2.20;;
74626;SDS011;63132;52.268;5.192;2023-01-15T06:06:31;13.73;;;2.10;;
74626;SDS011;63132;52.268;5.192;2023-01-15T06:08:57;11.70;;;1.92;;
74626;SDS011;63132;52.268;5.192;2023-01-15T06:11:23;13.97;;;2.33;;
74626;SDS011;63132;52.268;5.192;2023-01-15T06:13:49;13.00;;;2.33;;
74626;SDS011;63132;52.268;5.192;2023-01-15T06:16:15;14.68;;;2.50;;
74626;SDS011;63132;52.268;5.192;2023-01-15T06:18:42;17.13;;;2.57;;
74626;SDS011;63132;52.268;5.192;2023-01-15T06:21:09;14.25;;;2.03;;
74626;SDS011;63132;52.268;5.192;2023-01-15T06:23:36;14.95;;;2.40;;
74626;SDS011;63132;52.268;5.192;2023-01-15T06:26:03;12.70;;;2.30;;
74626;SDS011;63132;52.268;5.192;2023-01-15T06:28:30;15.00;;;2.10;;
74626;SDS011;63132;52.268;5.192;2023-01-15T06:30:55;11.47;;;1.97;;
74626;SDS011;63132;52.268;5.192;2023-01-15T06:33:21;11.38;;;1.85;;
74626;SDS011;63132;52.268;5.192;2023-01-15T06:35:47;19.23;;;2.50;;
74626;SDS011;63132;52.268;5.192;2023-01-15T06:38:12;11.85;;;2.40;;
74626;SDS011;63132;52.268;5.192;2023-01-15T06:40:38;13.40;;;2.10;;
74626;SDS011;63132;52.268;5.192;2023-01-15T06:43:03;11.83;;;2.03;;
74626;SDS011;63132;52.268;5.192;2023-01-15T06:45:47;13.57;;;2.70;;
74626;SDS011;63132;52.268;5.192;2023-01-15T06:48:31;14.25;;;2.33;;
74626;SDS011;63132;52.268;5.192;2023-01-15T06:50:57;13.63;;;1.97;;
74626;SDS011;63132;52.268;5.192;2023-01-15T06:53:23;16.73;;;2.10;;
74626;SDS011;63132;52.268;5.192;2023-01-15T06:55:49;15.73;;;2.33;;
74626;SDS011;63132;52.268;5.192;2023-01-15T06:58:14;16.85;;;2.50;;
74626;SDS011;63132;52.268;5.192;2023-01-15T07:00:40;12.90;;;2.53;;
74626;SDS011;63132;52.268;5.192;2023-01-15T07:03:10;12.60;;;2.22;;
74626;SDS011;63132;52.268;5.192;2023-01-15T07:05:38;13.48;;;2.30;;
74626;SDS011;63132;52.268;5.192;2023-01-15T07:08:04;9.13;;;2.10;;
74626;SDS011;63132;52.268;5.192;2023-01-15T07:10:31;15.43;;;2.50;;
74626;SDS011;63132;52.268;5.192;2023-01-15T07:12:58;14.07;;;2.50;;
74626;SDS011;63132;52.268;5.192;2023-01-15T07:15:23;16.60;;;2.53;;
74626;SDS011;63132;52.268;5.192;2023-01-15T07:17:52;17.77;;;2.50;;
74626;SDS011;63132;52.268;5.192;2023-01-15T07:20:19;17.83;;;3.00;;
74626;SDS011;63132;52.268;5.192;2023-01-15T07:22:49;13.82;;;2.30;;
74626;SDS011;63132;52.268;5.192;2023-01-15T07:25:15;14.63;;;2.60;;
74626;SDS011;63132;52.268;5.192;2023-01-15T07:27:41;15.17;;;2.73;;
74626;SDS011;63132;52.268;5.192;2023-01-15T07:30:07;14.35;;;2.53;;
74626;SDS011;63132;52.268;5.192;2023-01-15T07:32:32;18.00;;;3.00;;
74626;SDS011;63132;52.268;5.192;2023-01-15T07:34:58;17.77;;;2.87;;
74626;SDS011;63132;52.268;5.192;2023-01-15T07:37:23;18.17;;;2.47;;
74626;SDS011;63132;52.268;5.192;2023-01-15T07:39:49;12.55;;;2.58;;
74626;SDS011;63132;52.268;5.192;2023-01-15T07:42:14;18.52;;;2.95;;
74626;SDS011;63132;52.268;5.192;2023-01-15T07:44:58;13.93;;;2.65;;
74626;SDS011;63132;52.268;5.192;2023-01-15T07:47:42;13.23;;;2.67;;
74626;SDS011;63132;52.268;5.192;2023-01-15T07:50:26;16.23;;;2.58;;
74626;SDS011;63132;52.268;5.192;2023-01-15T07:52:51;13.77;;;2.40;;
74626;SDS011;63132;52.268;5.192;2023-01-15T07:55:16;12.97;;;2.57;;
74626;SDS011;63132;52.268;5.192;2023-01-15T07:57:42;13.95;;;2.05;;
74626;SDS011;63132;52.268;5.192;2023-01-15T08:00:12;11.93;;;2.60;;
74626;SDS011;63132;52.268;5.192;2023-01-15T08:02:43;12.60;;;2.30;;
74626;SDS011;63132;52.268;5.192;2023-01-15T08:05:10;14.00;;;2.13;;
74626;SDS011;63132;52.268;5.192;2023-01-15T08:07:39;16.40;;;2.45;;
74626;SDS011;63132;52.268;5.192;2023-01-15T08:10:06;20.17;;;2.70;;
74626;SDS011;63132;52.268;5.192;2023-01-15T08:12:33;15.50;;;2.40;;
74626;SDS011;63132;52.268;5.192;2023-01-15T08:15:17;17.88;;;2.50;;
74626;SDS011;63132;52.268;5.192;2023-01-15T08:17:44;18.00;;;2.63;;
74626;SDS011;63132;52.268;5.192;2023-01-15T08:22:43;14.52;;;2.65;;
74626;SDS011;63132;52.268;5.192;2023-01-15T08:25:10;13.13;;;2.80;;
74626;SDS011;63132;52.268;5.192;2023-01-15T08:27:37;17.45;;;2.47;;
74626;SDS011;63132;52.268;5.192;2023-01-15T08:30:05;17.77;;;3.28;;
74626;SDS011;63132;52.268;5.192;2023-01-15T08:32:32;16.37;;;2.90;;
74626;SDS011;63132;52.268;5.192;2023-01-15T08:34:58;16.40;;;3.10;;
74626;SDS011;63132;52.268;5.192;2023-01-15T08:37:23;18.70;;;2.83;;
74626;SDS011;63132;52.268;5.192;2023-01-15T08:39:49;13.73;;;2.37;;
74626;SDS011;63132;52.268;5.192;2023-01-15T08:42:17;19.73;;;3.15;;
74626;SDS011;63132;52.268;5.192;2023-01-15T08:44:44;17.70;;;2.80;;
74626;SDS011;63132;52.268;5.192;2023-01-15T08:47:10;16.38;;;2.63;;
74626;SDS011;63132;52.268;5.192;2023-01-15T08:49:35;15.45;;;2.95;;
74626;SDS011;63132;52.268;5.192;2023-01-15T08:52:01;16.48;;;2.60;;
74626;SDS011;63132;52.268;5.192;2023-01-15T08:54:26;17.77;;;3.13;;
74626;SDS011;63132;52.268;5.192;2023-01-15T08:56:52;21.13;;;2.78;;
74626;SDS011;63132;52.268;5.192;2023-01-15T08:59:17;20.10;;;2.90;;
74626;SDS011;63132;52.268;5.192;2023-01-15T09:01:43;14.32;;;2.50;;
74626;SDS011;63132;52.268;5.192;2023-01-15T09:04:16;18.67;;;2.50;;
74626;SDS011;63132;52.268;5.192;2023-01-15T09:06:44;20.27;;;2.75;;
74626;SDS011;63132;52.268;5.192;2023-01-15T09:09:10;14.38;;;3.15;;
74626;SDS011;63132;52.268;5.192;2023-01-15T09:11:37;18.23;;;3.58;;
74626;SDS011;63132;52.268;5.192;2023-01-15T09:14:05;17.48;;;2.25;;
74626;SDS011;63132;52.268;5.192;2023-01-15T09:16:34;20.23;;;3.50;;
74626;SDS011;63132;52.268;5.192;2023-01-15T09:19:00;12.88;;;2.47;;
74626;SDS011;63132;52.268;5.192;2023-01-15T09:21:25;11.03;;;2.20;;
74626;SDS011;63132;52.268;5.192;2023-01-15T09:23:51;12.53;;;2.10;;
74626;SDS011;63132;52.268;5.192;2023-01-15T09:26:27;13.60;;;2.42;;
74626;SDS011;63132;52.268;5.192;2023-01-15T09:28:55;14.48;;;2.75;;
74626;SDS011;63132;52.268;5.192;2023-01-15T09:31:21;18.17;;;3.20;;
74626;SDS011;63132;52.268;5.192;2023-01-15T09:33:47;12.02;;;2.30;;
74626;SDS011;63132;52.268;5.192;2023-01-15T09:36:20;10.47;;;1.90;;
74626;SDS011;63132;52.268;5.192;2023-01-15T09:38:57;15.10;;;2.63;;
74626;SDS011;63132;52.268;5.192;2023-01-15T09:41:24;14.60;;;2.53;;
74626;SDS011;63132;52.268;5.192;2023-01-15T09:49:36;13.35;;;2.70;;
74626;SDS011;63132;52.268;5.192;2023-01-15T09:57:29;15.52;;;2.83;;
74626;SDS011;63132;52.268;5.192;2023-01-15T09:59:56;13.77;;;2.57;;
74626;SDS011;63132;52.268;5.192;2023-01-15T10:02:39;20.33;;;3.13;;
74626;SDS011;63132;52.268;5.192;2023-01-15T10:05:23;18.25;;;2.83;;
74626;SDS011;63132;52.268;5.192;2023-01-15T10:10:41;16.13;;;2.53;;
74626;SDS011;63132;52.268;5.192;2023-01-15T10:16:03;18.48;;;3.17;;
74626;SDS011;63132;52.268;5.192;2023-01-15T10:18:29;19.23;;;3.17;;
74626;SDS011;63132;52.268;5.192;2023-01-15T10:32:21;16.50;;;3.15;;
74626;SDS011;63132;52.268;5.192;2023-01-15T10:37:59;17.08;;;3.00;;
74626;SDS011;63132;52.268;5.192;2023-01-15T10:43:19;16.20;;;2.70;;
74626;SDS011;63132;52.268;5.192;2023-01-15T10:45:58;16.05;;;2.92;;
74626;SDS011;63132;52.268;5.192;2023-01-15T10:48:28;16.20;;;2.70;;
74626;SDS011;63132;52.268;5.192;2023-01-15T10:50:54;17.30;;;2.47;;
74626;SDS011;63132;52.268;5.192;2023-01-15T10:53:45;15.73;;;2.35;;
74626;SDS011;63132;52.268;5.192;2023-01-15T11:01:47;15.60;;;2.90;;
74626;SDS011;63132;52.268;5.192;2023-01-15T11:04:16;16.67;;;2.60;;
74626;SDS011;63132;52.268;5.192;2023-01-15T11:06:42;13.55;;;2.30;;
74626;SDS011;63132;52.268;5.192;2023-01-15T11:09:08;19.67;;;2.80;;
74626;SDS011;63132;52.268;5.192;2023-01-15T11:11:48;14.20;;;2.33;;
74626;SDS011;63132;52.268;5.192;2023-01-15T11:14:40;13.25;;;2.40;;
74626;SDS011;63132;52.268;5.192;2023-01-15T11:17:30;13.73;;;2.47;;
74626;SDS011;63132;52.268;5.192;2023-01-15T11:22:51;18.27;;;3.00;;
74626;SDS011;63132;52.268;5.192;2023-01-15T11:25:24;15.82;;;2.88;;
74626;SDS011;63132;52.268;5.192;2023-01-15T11:27:53;14.18;;;2.53;;
74626;SDS011;63132;52.268;5.192;2023-01-15T11:30:24;22.50;;;3.22;;
74626;SDS011;63132;52.268;5.192;2023-01-15T11:32:58;19.40;;;3.33;;
74626;SDS011;63132;52.268;5.192;2023-01-15T11:35:28;14.77;;;2.55;;
74626;SDS011;63132;52.268;5.192;2023-01-15T11:38:01;14.70;;;2.70;;
74626;SDS011;63132;52.268;5.192;2023-01-15T11:40:27;18.73;;;2.35;;
74626;SDS011;63132;52.268;5.192;2023-01-15T11:42:52;13.53;;;2.50;;
74626;SDS011;63132;52.268;5.192;2023-01-15T11:45:49;14.90;;;3.03;;
74626;SDS011;63132;52.268;5.192;2023-01-15T11:48:42;13.48;;;3.05;;
74626;SDS011;63132;52.268;5.192;2023-01-15T11:51:28;15.73;;;3.10;;
74626;SDS011;63132;52.268;5.192;2023-01-15T11:53:58;18.13;;;2.88;;
74626;SDS011;63132;52.268;5.192;2023-01-15T11:56:28;18.08;;;2.55;;
74626;SDS011;63132;52.268;5.192;2023-01-15T11:58:56;17.85;;;2.92;;
74626;SDS011;63132;52.268;5.192;2023-01-15T12:01:27;11.85;;;2.65;;
74626;SDS011;63132;52.268;5.192;2023-01-15T12:03:55;17.20;;;3.20;;
74626;SDS011;63132;52.268;5.192;2023-01-15T12:06:22;14.85;;;2.72;;
74626;SDS011;63132;52.268;5.192;2023-01-15T12:20:47;20.35;;;3.55;;
74626;SDS011;63132;52.268;5.192;2023-01-15T12:36:37;17.55;;;3.17;;
74626;SDS011;63132;52.268;5.192;2023-01-15T12:42:06;21.60;;;3.80;;
74626;SDS011;63132;52.268;5.192;2023-01-15T12:44:55;14.45;;;3.05;;
74626;SDS011;63132;52.268;5.192;2023-01-15T12:58:30;18.17;;;2.88;;
74626;SDS011;63132;52.268;5.192;2023-01-15T13:04:07;19.67;;;3.10;;
74626;SDS011;63132;52.268;5.192;2023-01-15T13:06:41;19.08;;;2.88;;
74626;SDS011;63132;52.268;5.192;2023-01-15T13:12:02;18.38;;;2.85;;
74626;SDS011;63132;52.268;5.192;2023-01-15T13:14:34;14.63;;;2.60;;
74626;SDS011;63132;52.268;5.192;2023-01-15T13:17:06;14.07;;;2.72;;
74626;SDS011;63132;52.268;5.192;2023-01-15T13:19:37;15.82;;;2.85;;
74626;SDS011;63132;52.268;5.192;2023-01-15T13:22:07;18.55;;;2.97;;
74626;SDS011;63132;52.268;5.192;2023-01-15T13:30:42;17.77;;;3.22;;
74626;SDS011;63132;52.268;5.192;2023-01-15T13:33:27;16.90;;;2.70;;
74626;SDS011;63132;52.268;5.192;2023-01-15T13:36:17;21.37;;;3.63;;
74626;SDS011;63132;52.268;5.192;2023-01-15T13:38:50;17.93;;;3.23;;
74626;SDS011;63132;52.268;5.192;2023-01-15T13:41:20;16.20;;;3.78;;
74626;SDS011;63132;52.268;5.192;2023-01-15T13:44:21;23.40;;;3.72;;
74626;SDS011;63132;52.268;5.192;2023-01-15T13:47:01;17.88;;;2.83;;
74626;SDS011;63132;52.268;5.192;2023-01-15T13:52:30;16.63;;;2.90;;
74626;SDS011;63132;52.268;5.192;2023-01-15T13:55:10;16.02;;;3.25;;
74626;SDS011;63132;52.268;5.192;2023-01-15T13:57:45;17.27;;;3.45;;
74626;SDS011;63132;52.268;5.192;2023-01-15T14:02:59;14.30;;;3.22;;
74626;SDS011;63132;52.268;5.192;2023-01-15T14:05:33;14.03;;;2.97;;
74626;SDS011;63132;52.268;5.192;2023-01-15T14:08:00;16.23;;;2.90;;
74626;SDS011;63132;52.268;5.192;2023-01-15T14:10:32;19.15;;;3.00;;
74626;SDS011;63132;52.268;5.192;2023-01-15T14:15:49;15.77;;;3.08;;
74626;SDS011;63132;52.268;5.192;2023-01-15T14:35:13;21.10;;;4.10;;
74626;SDS011;63132;52.268;5.192;2023-01-15T14:40:22;21.23;;;4.35;;
74626;SDS011;63132;52.268;5.192;2023-01-15T14:42:52;21.90;;;4.32;;
74626;SDS011;63132;52.268;5.192;2023-01-15T14:45:41;25.60;;;4.40;;
74626;SDS011;63132;52.268;5.192;2023-01-15T14:48:17;22.70;;;4.43;;
74626;SDS011;63132;52.268;5.192;2023-01-15T14:50:52;23.73;;;4.15;;
74626;SDS011;63132;52.268;5.192;2023-01-15T14:53:27;21.08;;;4.40;;
74626;SDS011;63132;52.268;5.192;2023-01-15T15:01:43;19.85;;;4.13;;
74626;SDS011;63132;52.268;5.192;2023-01-15T15:04:22;16.35;;;2.72;;
74626;SDS011;63132;52.268;5.192;2023-01-15T15:07:07;17.90;;;3.42;;
74626;SDS011;63132;52.268;5.192;2023-01-15T15:09:44;14.57;;;3.08;;
74626;SDS011;63132;52.268;5.192;2023-01-15T15:12:19;15.05;;;3.13;;
74626;SDS011;63132;52.268;5.192;2023-01-15T15:17:31;15.05;;;3.03;;
74626;SDS011;63132;52.268;5.192;2023-01-15T15:26:28;19.17;;;3.65;;
74626;SDS011;63132;52.268;5.192;2023-01-15T15:28:56;20.45;;;3.92;;
74626;SDS011;63132;52.268;5.192;2023-01-15T15:31:25;20.10;;;4.03;;
74626;SDS011;63132;52.268;5.192;2023-01-15T15:33:53;24.27;;;4.97;;
74626;SDS011;63132;52.268;5.192;2023-01-15T15:36:20;22.33;;;3.75;;
74626;SDS011;63132;52.268;5.192;2023-01-15T15:41:58;17.88;;;3.30;;
74626;SDS011;63132;52.268;5.192;2023-01-15T15:44:46;15.65;;;2.58;;
74626;SDS011;63132;52.268;5.192;2023-01-15T15:47:38;17.38;;;2.80;;
74626;SDS011;63132;52.268;5.192;2023-01-15T15:50:31;13.25;;;2.92;;
74626;SDS011;63132;52.268;5.192;2023-01-15T15:52:58;15.90;;;3.03;;
74626;SDS011;63132;52.268;5.192;2023-01-15T15:55:39;18.30;;;3.35;;
74626;SDS011;63132;52.268;5.192;2023-01-15T15:58:08;19.60;;;3.60;;
74626;SDS011;63132;52.268;5.192;2023-01-15T16:00:42;21.63;;;3.55;;
74626;SDS011;63132;52.268;5.192;2023-01-15T16:03:17;18.47;;;2.97;;
74626;SDS011;63132;52.268;5.192;2023-01-15T16:05:53;20.27;;;3.75;;
74626;SDS011;63132;52.268;5.192;2023-01-15T16:08:41;18.70;;;3.67;;
74626;SDS011;63132;52.268;5.192;2023-01-15T16:11:17;15.93;;;3.10;;
74626;SDS011;63132;52.268;5.192;2023-01-15T16:13:49;16.35;;;3.10;;
74626;SDS011;63132;52.268;5.192;2023-01-15T16:16:19;18.70;;;3.20;;
74626;SDS011;63132;52.268;5.192;2023-01-15T16:18:49;18.10;;;3.20;;
74626;SDS011;63132;52.268;5.192;2023-01-15T16:24:02;20.13;;;3.13;;
74626;SDS011;63132;52.268;5.192;2023-01-15T16:26:53;18.60;;;3.13;;
74626;SDS011;63132;52.268;5.192;2023-01-15T16:29:21;22.73;;;3.00;;
74626;SDS011;63132;52.268;5.192;2023-01-15T16:31:50;16.23;;;2.45;;
74626;SDS011;63132;52.268;5.192;2023-01-15T16:34:26;15.20;;;2.45;;
74626;SDS011;63132;52.268;5.192;2023-01-15T16:36:54;14.57;;;2.40;;
74626;SDS011;63132;52.268;5.192;2023-01-15T16:39:34;12.65;;;2.60;;
74626;SDS011;63132;52.268;5.192;2023-01-15T16:42:11;13.82;;;2.60;;
74626;SDS011;63132;52.268;5.192;2023-01-15T16:44:51;12.68;;;2.60;;
74626;SDS011;63132;52.268;5.192;2023-01-15T16:47:23;13.35;;;2.83;;
74626;SDS011;63132;52.268;5.192;2023-01-15T16:50:36;12.23;;;2.20;;
74626;SDS011;63132;52.268;5.192;2023-01-15T16:52:48;9.05;;;2.10;;
74626;SDS011;63132;52.268;5.192;2023-01-15T17:00:36;14.02;;;2.70;;
74626;SDS011;63132;52.268;5.192;2023-01-15T17:03:03;11.52;;;2.33;;
74626;SDS011;63132;52.268;5.192;2023-01-15T17:05:34;9.00;;;2.30;;
74626;SDS011;63132;52.268;5.192;2023-01-15T17:08:01;13.25;;;2.53;;
74626;SDS011;63132;52.268;5.192;2023-01-15T17:10:27;11.75;;;2.25;;
74626;SDS011;63132;52.268;5.192;2023-01-15T17:12:53;9.68;;;2.00;;
74626;SDS011;63132;52.268;5.192;2023-01-15T17:17:51;7.10;;;1.90;;
74626;SDS011;63132;52.268;5.192;2023-01-15T17:20:19;9.52;;;2.25;;
74626;SDS011;63132;52.268;5.192;2023-01-15T17:22:48;8.57;;;2.20;;
74626;SDS011;63132;52.268;5.192;2023-01-15T17:27:59;10.00;;;2.40;;
74626;SDS011;63132;52.268;5.192;2023-01-15T17:30:26;12.82;;;2.90;;
74626;SDS011;63132;52.268;5.192;2023-01-15T17:32:58;13.20;;;3.25;;
74626;SDS011;63132;52.268;5.192;2023-01-15T17:35:32;12.60;;;3.45;;
74626;SDS011;63132;52.268;5.192;2023-01-15T17:38:00;11.85;;;3.33;;
74626;SDS011;63132;52.268;5.192;2023-01-15T17:40:26;16.63;;;3.50;;
74626;SDS011;63132;52.268;5.192;2023-01-15T17:42:52;14.43;;;3.30;;
74626;SDS011;63132;52.268;5.192;2023-01-15T17:45:28;14.83;;;3.40;;
74626;SDS011;63132;52.268;5.192;2023-01-15T17:47:57;19.40;;;3.30;;
74626;SDS011;63132;52.268;5.192;2023-01-15T17:50:23;16.58;;;3.47;;
74626;SDS011;63132;52.268;5.192;2023-01-15T17:52:49;13.23;;;3.55;;
74626;SDS011;63132;52.268;5.192;2023-01-15T17:55:16;13.52;;;3.55;;
74626;SDS011;63132;52.268;5.192;2023-01-15T17:58:03;12.63;;;3.08;;
74626;SDS011;63132;52.268;5.192;2023-01-15T18:00:47;14.73;;;2.85;;
74626;SDS011;63132;52.268;5.192;2023-01-15T18:03:32;10.33;;;2.57;;